AirNav   Duncan Aviation - Near you to keep you flying
 
 478 users online  

38WA Blakely Island Airport
Blakely Island, Washington, USA

GOING TO BLAKELY ISLAND?


FAA INFORMATION EFFECTIVE 07 OCTOBER 2021

Location

FAA Identifier: 38WA
Lat/Long: 48-34-44.3700N 122-49-34.6470W
48-34.739500N 122-49.577450W
48.5789917,-122.8262908
(estimated)
Elevation: 66 ft. / 20.1 m (surveyed)
Variation: 21E (1985)
Time zone: UTC -7 (UTC -8 during Standard Time)
Zip code: 98222

Airport Operations

Airport use: Private use. Permission required prior to landing
Activation date: 01/1948
Control tower: no
ARTCC: SEATTLE CENTER
FSS: SEATTLE FLIGHT SERVICE STATION
Attendance: CONTINUOUS
Wind indicator: lighted
Segmented circle: no
Lights: ACTVT MIRL RY 01/19 - 122.9.

Airport Communications

WX AWOS-3 at ORS (8 nm NW): 135.425 (360-376-6045)
WX ASOS at FHR (9 nm SW): 135.675 (360-378-8491)
WX ASOS at NUW (15 nm SE): PHONE 360-257-8813
WX ASOS at BLI (17 nm NE): PHONE 360-671-8688
WX AWOS-3 at BVS (17 nm E): 121.125 (360-757-7767)
  • MULTICOM FREQ 122.9.

Nearby radio navigation aids

VOR radial/distance  VOR name  Freq  Var
CVVr330/20.5PENN COVE VOR/DME117.2019E
HUHr184/24.1WHATCOM VORTAC113.0020E
YYJr092/27.6VICTORIA VOR/DME113.7017E
YVRr140/32.5VANCOUVER VOR/DME115.9017E

 
NDB name  Hdg/Dist  Freq  Var  ID
FRIDAY HARBOR046/8.828417EFHR ..-. .... .-.
SKAGIT/BAY VIEW276/17.524016EBVS -... ...- ...
EDIZ HOOK024/35.033817ENOW -. --- .--

Airport Services

Runway Information

Runway 1/19

Dimensions: 2200 x 40 ft. / 671 x 12 m
ADDNL 200 X 40' OVRNS & TURBC BOTH ENDS RWY 01/19.
Surface: asphalt
Runway edge lights: medium intensity
RUNWAY 1  RUNWAY 19
Traffic pattern: leftright
Displaced threshold: 252 ft.122 ft.
Obstructions: trees, 2000 ft. from runwaytrees, 2000 ft. from runway

Airport Ownership and Management from official FAA records

Ownership: Privately-owned
Owner: BLAKELY ISLAND MAINT COM
355 BLAKELY DR
BLAKELY ISLAND, WA 98222
Manager: DAN ROACH
466 MARINE DR
BLAKLEY ISLAND, WA 98222
Phone 206-276-3054
FONE 206-276-3054 DECRRR@GMAIL.COM. SEC CTC JOEL STEWARD 509-435-7591 360-375-6662.

Airport Operational Statistics

Aircraft based on the field: 11
Single engine airplanes: 5
Multi engine airplanes: 6
    

Additional Remarks

TREES BOTH SIDES OF RWY PENT TRSNL SFC.
WATCH FOR DEER ON RWY.
MIDDLE RY 01/19 HIGHER THAN EITHER END. CHECK ARPT TFC FM RUN-UP PAD CENTER OF FLD BEFORE TKOF.
FOR CD CTC WHIDBEY APCH AT 360-257-3310.

Instrument Procedures

There are no published instrument procedures at 38WA.

Some nearby airports with instrument procedures:

KORS - Orcas Island Airport (8 nm NW)
KFHR - Friday Harbor Airport (9 nm SW)
KNUW - Whidbey Island Naval Air Station (Ault Field) (15 nm SE)
KBLI - Bellingham International Airport (17 nm NE)
KBVS - Skagit Regional Airport (17 nm E)
 
Loc | Ops | Rwys | IFR | FBO | Links
Com | Nav | Svcs | Stats | Notes
Area around 38WA (Blakely Island Airport)
 
Road maps at: MapQuest Bing Google
 
Aerial photo
WARNING: Photo may not be current or correct
Aerial photo of 38WA (Blakely Island Airport)
Photo by Domenick Venezia, 2003-09

Do you have a better or more recent aerial photo of Blakely Island Airport that you would like to share? If so, please send us your photo.

 
Sectional chart

 
Airport distance calculator
Flying to Blakely Island Airport? Find the distance to fly.

From to 38WA

Sunrise and sunset
Times for 16-Oct-2021
 Local
(UTC-7)
 Zulu
(UTC)
Morning civil twilight07:0214:02
Sunrise07:3414:34
Sunset18:2001:20
Evening civil twilight18:5101:51

Current date and time
Zulu (UTC)  16-Oct-2021 07:11:56
Local (UTC-7)  16-Oct-2021 00:11:56
 
METAR
KORS 
8nm N 
160655Z AUTO 17010G19KT 9SM -RA FEW040 BKN065 OVC075 13/11 A3001 RMK AO2
KFHR 
9nm SW 
160653Z AUTO 13010G21KT 10SM FEW017 OVC100 12/10 A3003 RMK AO2 RAE53 SLP168 P0000 T01220100 TSNO
CWEZ 
14nm NW 
160600Z AUTO 16024KT 12/10 RMK AO1 PK WND 16030/0532 SLP160 T01230097 56003
KNUW 
15nm SE 
160656Z 13023G32KT 10SM SCT060 SCT080 OVC110 13/10 A3007 RMK AO2 PK WND 14033/0631 RAE44 SLP181 P0001 T01330100 VISNO $
CWZO 
16nm W 
160600Z AUTO 16023KT RMK AO1 PK WND 16029/0536
KBVS 
18nm E 
160655Z AUTO 10009KT 10SM FEW026 BKN034 OVC075 12/10 A3007 RMK A01 P0005
KBLI 
18nm NE 
160653Z AUTO 10SM -RA OVC070 13/10 A3003 RMK AO2 SLP177 P0006 T01280100
CWYJ 
20nm SW 
160600Z AUTO 09001KT 11/11 RMK AO1 5PAST HR 7002 SLP164 P0002 T01060106 50005
TAF
KNUW 
15nm SE 
1601/1623 13018G32KT 9999 FEW012 BKN050 OVC090 640709 540209 541103 QNH3003INS TEMPO 1602/1606 14020G35KT 8000 -RA FEW008 BKN015 OVC050 FM160700 15020G40KT 8000 -RA SCT012 BKN035 OVC080 640609 540109 541004 QNH2999INS TEMPO 1608/1612 15025G46KT 3200 -RA BR BKN008 OVC015 FM161300 18020G35KT 9999 VCSH SCT025 OVC060 640708 540109 540903 QNH2995INS TEMPO 1616/1622 16015G22KT 3200 -RA BKN010 OVC030 T08/1612Z T16/1622Z FS30188 AMD 0112
KBLI 
18nm NE 
160522Z 1606/1706 15015G25KT P6SM -RA SCT045 OVC070 FM161000 15015G25KT 4SM -RA BR OVC030 FM170300 16010KT P6SM OVC040
NOTAMs
Click for the latest NOTAMs
NOTAMs are issued by the DoD/FAA and will open in a separate window not controlled by AirNav.

 

 
 

Would you like to see your business listed on this page?

 If your business provides an interesting product or service to pilots, flight crews, aircraft, or users of the Blakely Island Airport, you should consider listing it here.  To start the listing process, click on the button below
 
Add a business
 

Other Pages about Blakely Island Airport

www.rockisland.com/...
 
Update a link
 
Copyright © AirNav, LLC. All rights reserved. Privacy Policy  Contact